sensor_id;sensor_type;location;lat;lon;timestamp;temperature;humidity
18287;DHT22;9269;50.838;12.094;2023-06-19T00:02:26;24.30;21.50
18287;DHT22;9269;50.838;12.094;2023-06-19T00:04:54;24.30;21.50
18287;DHT22;9269;50.838;12.094;2023-06-19T00:07:22;24.30;21.60
18287;DHT22;9269;50.838;12.094;2023-06-19T00:09:51;24.20;21.30
18287;DHT22;9269;50.838;12.094;2023-06-19T00:12:19;24.10;21.40
18287;DHT22;9269;50.838;12.094;2023-06-19T00:14:47;24.20;21.20
18287;DHT22;9269;50.838;12.094;2023-06-19T00:17:16;24.10;21.50
18287;DHT22;9269;50.838;12.094;2023-06-19T00:19:45;24.10;21.40
18287;DHT22;9269;50.838;12.094;2023-06-19T00:22:15;24.00;21.60
18287;DHT22;9269;50.838;12.094;2023-06-19T00:24:44;24.00;21.50
18287;DHT22;9269;50.838;12.094;2023-06-19T00:27:13;24.00;21.40
18287;DHT22;9269;50.838;12.094;2023-06-19T00:29:41;24.00;21.40
18287;DHT22;9269;50.838;12.094;2023-06-19T00:32:09;23.90;21.60
18287;DHT22;9269;50.838;12.094;2023-06-19T00:34:37;24.00;21.50
18287;DHT22;9269;50.838;12.094;2023-06-19T00:37:07;23.90;21.60
18287;DHT22;9269;50.838;12.094;2023-06-19T00:39:36;23.80;21.50
18287;DHT22;9269;50.838;12.094;2023-06-19T00:42:05;23.80;21.60
18287;DHT22;9269;50.838;12.094;2023-06-19T00:44:34;23.80;21.60
18287;DHT22;9269;50.838;12.094;2023-06-19T00:47:03;23.80;21.40
18287;DHT22;9269;50.838;12.094;2023-06-19T00:49:32;23.80;21.60
18287;DHT22;9269;50.838;12.094;2023-06-19T00:52:02;23.70;21.70
18287;DHT22;9269;50.838;12.094;2023-06-19T00:54:31;23.70;21.80
18287;DHT22;9269;50.838;12.094;2023-06-19T00:57:00;23.70;21.70
18287;DHT22;9269;50.838;12.094;2023-06-19T00:59:29;23.70;22.60
18287;DHT22;9269;50.838;12.094;2023-06-19T01:01:57;23.80;22.40
18287;DHT22;9269;50.838;12.094;2023-06-19T01:04:26;23.60;22.40
18287;DHT22;9269;50.838;12.094;2023-06-19T01:06:57;23.60;22.70
18287;DHT22;9269;50.838;12.094;2023-06-19T01:09:29;23.60;22.40
18287;DHT22;9269;50.838;12.094;2023-06-19T01:12:06;23.60;23.20
18287;DHT22;9269;50.838;12.094;2023-06-19T01:14:39;23.60;24.20
18287;DHT22;9269;50.838;12.094;2023-06-19T01:17:11;23.60;24.50
18287;DHT22;9269;50.838;12.094;2023-06-19T01:19:39;23.50;24.60
18287;DHT22;9269;50.838;12.094;2023-06-19T01:22:09;23.50;24.70
18287;DHT22;9269;50.838;12.094;2023-06-19T01:24:37;23.60;24.80
18287;DHT22;9269;50.838;12.094;2023-06-19T01:27:06;23.50;25.30
18287;DHT22;9269;50.838;12.094;2023-06-19T01:29:34;23.60;25.10
18287;DHT22;9269;50.838;12.094;2023-06-19T01:32:06;23.60;24.80
18287;DHT22;9269;50.838;12.094;2023-06-19T01:34:38;23.50;24.40
18287;DHT22;9269;50.838;12.094;2023-06-19T01:37:09;23.50;24.40
18287;DHT22;9269;50.838;12.094;2023-06-19T01:39:39;23.50;24.10
18287;DHT22;9269;50.838;12.094;2023-06-19T01:42:08;23.50;24.10
18287;DHT22;9269;50.838;12.094;2023-06-19T01:44:38;23.50;23.90
18287;DHT22;9269;50.838;12.094;2023-06-19T01:47:09;23.60;24.10
18287;DHT22;9269;50.838;12.094;2023-06-19T01:49:38;23.50;23.80
18287;DHT22;9269;50.838;12.094;2023-06-19T01:52:06;23.60;23.70
18287;DHT22;9269;50.838;12.094;2023-06-19T01:54:36;23.50;23.80
18287;DHT22;9269;50.838;12.094;2023-06-19T01:57:05;23.50;23.70
18287;DHT22;9269;50.838;12.094;2023-06-19T01:59:33;23.50;23.80
18287;DHT22;9269;50.838;12.094;2023-06-19T02:02:02;23.40;23.90
18287;DHT22;9269;50.838;12.094;2023-06-19T02:04:33;23.40;23.70
18287;DHT22;9269;50.838;12.094;2023-06-19T02:07:02;23.50;23.80
18287;DHT22;9269;50.838;12.094;2023-06-19T02:09:30;23.40;23.80
18287;DHT22;9269;50.838;12.094;2023-06-19T02:12:00;23.40;24.40
18287;DHT22;9269;50.838;12.094;2023-06-19T02:14:28;23.40;24.40
18287;DHT22;9269;50.838;12.094;2023-06-19T02:16:56;23.30;24.60
18287;DHT22;9269;50.838;12.094;2023-06-19T02:19:25;23.30;24.40
18287;DHT22;9269;50.838;12.094;2023-06-19T02:21:53;23.30;24.50
18287;DHT22;9269;50.838;12.094;2023-06-19T02:24:21;23.30;24.20
18287;DHT22;9269;50.838;12.094;2023-06-19T02:26:50;23.30;24.00
18287;DHT22;9269;50.838;12.094;2023-06-19T02:29:20;23.30;24.40
18287;DHT22;9269;50.838;12.094;2023-06-19T02:31:48;23.30;24.60
18287;DHT22;9269;50.838;12.094;2023-06-19T02:34:17;23.20;25.30
18287;DHT22;9269;50.838;12.094;2023-06-19T02:36:45;23.30;25.10
18287;DHT22;9269;50.838;12.094;2023-06-19T02:39:14;23.30;24.90
18287;DHT22;9269;50.838;12.094;2023-06-19T02:41:42;23.20;24.70
18287;DHT22;9269;50.838;12.094;2023-06-19T02:44:13;23.30;25.00
18287;DHT22;9269;50.838;12.094;2023-06-19T02:46:43;23.30;24.40
18287;DHT22;9269;50.838;12.094;2023-06-19T02:49:11;23.30;24.70
18287;DHT22;9269;50.838;12.094;2023-06-19T02:51:39;23.30;25.00
18287;DHT22;9269;50.838;12.094;2023-06-19T02:54:08;23.30;24.80
18287;DHT22;9269;50.838;12.094;2023-06-19T02:56:38;23.30;24.60
18287;DHT22;9269;50.838;12.094;2023-06-19T02:59:06;23.20;24.70
18287;DHT22;9269;50.838;12.094;2023-06-19T03:01:35;23.30;24.20
18287;DHT22;9269;50.838;12.094;2023-06-19T03:04:05;23.20;24.90
18287;DHT22;9269;50.838;12.094;2023-06-19T03:06:33;23.10;25.00
18287;DHT22;9269;50.838;12.094;2023-06-19T03:09:07;23.20;25.10
18287;DHT22;9269;50.838;12.094;2023-06-19T03:11:39;23.10;24.70
18287;DHT22;9269;50.838;12.094;2023-06-19T03:14:07;23.10;24.80
18287;DHT22;9269;50.838;12.094;2023-06-19T03:16:36;23.00;25.10
18287;DHT22;9269;50.838;12.094;2023-06-19T03:19:06;23.10;25.10
18287;DHT22;9269;50.838;12.094;2023-06-19T03:21:34;23.00;25.50
18287;DHT22;9269;50.838;12.094;2023-06-19T03:24:03;23.10;25.40
18287;DHT22;9269;50.838;12.094;2023-06-19T03:26:32;23.10;25.60
18287;DHT22;9269;50.838;12.094;2023-06-19T03:29:00;23.10;25.80
18287;DHT22;9269;50.838;12.094;2023-06-19T03:31:28;23.10;26.20
18287;DHT22;9269;50.838;12.094;2023-06-19T03:33:58;23.10;26.20
18287;DHT22;9269;50.838;12.094;2023-06-19T03:36:28;23.20;25.80
18287;DHT22;9269;50.838;12.094;2023-06-19T03:38:56;23.10;26.10
18287;DHT22;9269;50.838;12.094;2023-06-19T03:41:24;23.10;26.40
18287;DHT22;9269;50.838;12.094;2023-06-19T03:43:52;23.10;26.30
18287;DHT22;9269;50.838;12.094;2023-06-19T03:46:21;23.20;26.50
18287;DHT22;9269;50.838;12.094;2023-06-19T03:48:49;23.20;26.30
18287;DHT22;9269;50.838;12.094;2023-06-19T03:51:18;23.20;26.10
18287;DHT22;9269;50.838;12.094;2023-06-19T03:53:48;23.30;25.90
18287;DHT22;9269;50.838;12.094;2023-06-19T03:56:16;23.20;26.60
18287;DHT22;9269;50.838;12.094;2023-06-19T03:58:44;23.20;26.70
18287;DHT22;9269;50.838;12.094;2023-06-19T04:01:13;23.30;27.00
18287;DHT22;9269;50.838;12.094;2023-06-19T04:03:41;23.20;26.30
18287;DHT22;9269;50.838;12.094;2023-06-19T04:06:10;23.30;26.40
18287;DHT22;9269;50.838;12.094;2023-06-19T04:08:38;23.30;26.70
18287;DHT22;9269;50.838;12.094;2023-06-19T04:11:08;23.20;26.40
18287;DHT22;9269;50.838;12.094;2023-06-19T04:13:36;23.20;26.40
18287;DHT22;9269;50.838;12.094;2023-06-19T04:16:05;23.30;26.90
18287;DHT22;9269;50.838;12.094;2023-06-19T04:18:33;23.20;27.30
18287;DHT22;9269;50.838;12.094;2023-06-19T04:21:02;23.20;27.00
18287;DHT22;9269;50.838;12.094;2023-06-19T04:23:30;23.30;27.50
18287;DHT22;9269;50.838;12.094;2023-06-19T04:25:58;23.30;27.80
18287;DHT22;9269;50.838;12.094;2023-06-19T04:28:28;23.30;27.30
18287;DHT22;9269;50.838;12.094;2023-06-19T04:30:56;23.20;27.50
18287;DHT22;9269;50.838;12.094;2023-06-19T04:33:28;23.30;27.60
18287;DHT22;9269;50.838;12.094;2023-06-19T04:35:56;23.30;27.60
18287;DHT22;9269;50.838;12.094;2023-06-19T04:38:25;23.30;27.60
18287;DHT22;9269;50.838;12.094;2023-06-19T04:40:53;23.30;27.60
18287;DHT22;9269;50.838;12.094;2023-06-19T04:43:24;23.30;27.70
18287;DHT22;9269;50.838;12.094;2023-06-19T04:45:54;23.40;27.60
18287;DHT22;9269;50.838;12.094;2023-06-19T04:48:22;23.40;27.50
18287;DHT22;9269;50.838;12.094;2023-06-19T04:50:53;23.40;27.30
18287;DHT22;9269;50.838;12.094;2023-06-19T04:53:23;23.40;27.10
18287;DHT22;9269;50.838;12.094;2023-06-19T04:55:52;23.40;27.40
18287;DHT22;9269;50.838;12.094;2023-06-19T04:58:22;23.30;27.60
18287;DHT22;9269;50.838;12.094;2023-06-19T05:00:50;23.40;27.10
18287;DHT22;9269;50.838;12.094;2023-06-19T05:03:21;23.50;27.30
18287;DHT22;9269;50.838;12.094;2023-06-19T05:05:50;23.50;27.70
18287;DHT22;9269;50.838;12.094;2023-06-19T05:08:18;23.50;27.60
18287;DHT22;9269;50.838;12.094;2023-06-19T05:10:46;23.40;27.10
18287;DHT22;9269;50.838;12.094;2023-06-19T05:13:15;23.40;27.40
18287;DHT22;9269;50.838;12.094;2023-06-19T05:15:45;23.50;27.70
18287;DHT22;9269;50.838;12.094;2023-06-19T05:18:14;23.50;27.40
18287;DHT22;9269;50.838;12.094;2023-06-19T05:20:44;23.60;26.80
18287;DHT22;9269;50.838;12.094;2023-06-19T05:23:12;23.50;27.30
18287;DHT22;9269;50.838;12.094;2023-06-19T05:25:40;23.50;27.20
18287;DHT22;9269;50.838;12.094;2023-06-19T05:28:10;23.60;27.10
18287;DHT22;9269;50.838;12.094;2023-06-19T05:30:39;23.60;27.20
18287;DHT22;9269;50.838;12.094;2023-06-19T05:33:07;23.50;27.20
18287;DHT22;9269;50.838;12.094;2023-06-19T05:35:37;23.50;27.20
18287;DHT22;9269;50.838;12.094;2023-06-19T05:38:07;23.60;27.70
18287;DHT22;9269;50.838;12.094;2023-06-19T05:40:36;23.50;27.40
18287;DHT22;9269;50.838;12.094;2023-06-19T05:43:04;23.60;28.30
18287;DHT22;9269;50.838;12.094;2023-06-19T05:45:33;23.60;28.20
18287;DHT22;9269;50.838;12.094;2023-06-19T05:48:01;23.60;28.30
18287;DHT22;9269;50.838;12.094;2023-06-19T05:50:30;23.70;27.60
18287;DHT22;9269;50.838;12.094;2023-06-19T05:52:59;23.60;27.90
18287;DHT22;9269;50.838;12.094;2023-06-19T05:55:29;23.70;27.50
18287;DHT22;9269;50.838;12.094;2023-06-19T05:57:58;23.80;27.60
18287;DHT22;9269;50.838;12.094;2023-06-19T06:00:26;23.70;27.50
18287;DHT22;9269;50.838;12.094;2023-06-19T06:02:54;23.80;27.60
18287;DHT22;9269;50.838;12.094;2023-06-19T06:05:23;23.80;27.10
18287;DHT22;9269;50.838;12.094;2023-06-19T06:07:53;23.80;27.50
18287;DHT22;9269;50.838;12.094;2023-06-19T06:10:22;23.80;27.60
18287;DHT22;9269;50.838;12.094;2023-06-19T06:12:52;23.80;27.40
18287;DHT22;9269;50.838;12.094;2023-06-19T06:15:20;23.70;27.60
18287;DHT22;9269;50.838;12.094;2023-06-19T06:17:49;23.70;27.70
18287;DHT22;9269;50.838;12.094;2023-06-19T06:20:17;23.70;27.40
18287;DHT22;9269;50.838;12.094;2023-06-19T06:22:45;23.80;27.40
18287;DHT22;9269;50.838;12.094;2023-06-19T06:25:14;23.80;27.20
18287;DHT22;9269;50.838;12.094;2023-06-19T06:27:42;23.90;27.10
18287;DHT22;9269;50.838;12.094;2023-06-19T06:30:13;23.90;26.80
18287;DHT22;9269;50.838;12.094;2023-06-19T06:32:44;23.90;26.70
18287;DHT22;9269;50.838;12.094;2023-06-19T06:35:13;24.00;26.90
18287;DHT22;9269;50.838;12.094;2023-06-19T06:37:41;24.10;27.10
18287;DHT22;9269;50.838;12.094;2023-06-19T06:40:11;24.20;27.00
18287;DHT22;9269;50.838;12.094;2023-06-19T06:42:39;24.20;27.50
18287;DHT22;9269;50.838;12.094;2023-06-19T06:45:08;24.20;27.10
18287;DHT22;9269;50.838;12.094;2023-06-19T06:47:38;24.30;27.60
18287;DHT22;9269;50.838;12.094;2023-06-19T06:50:09;24.30;27.50
18287;DHT22;9269;50.838;12.094;2023-06-19T06:52:38;24.30;27.50
18287;DHT22;9269;50.838;12.094;2023-06-19T06:55:07;24.40;27.70
18287;DHT22;9269;50.838;12.094;2023-06-19T06:57:35;24.40;27.90
18287;DHT22;9269;50.838;12.094;2023-06-19T07:00:05;24.40;27.60
18287;DHT22;9269;50.838;12.094;2023-06-19T07:02:38;24.40;27.90
18287;DHT22;9269;50.838;12.094;2023-06-19T07:05:09;24.50;27.50
18287;DHT22;9269;50.838;12.094;2023-06-19T07:07:38;24.60;27.10
18287;DHT22;9269;50.838;12.094;2023-06-19T07:10:07;24.50;27.30
18287;DHT22;9269;50.838;12.094;2023-06-19T07:12:43;24.70;26.80
18287;DHT22;9269;50.838;12.094;2023-06-19T07:15:12;24.60;27.00
18287;DHT22;9269;50.838;12.094;2023-06-19T07:17:42;24.70;26.80
18287;DHT22;9269;50.838;12.094;2023-06-19T07:20:11;24.70;26.90
18287;DHT22;9269;50.838;12.094;2023-06-19T07:22:40;24.80;27.20
18287;DHT22;9269;50.838;12.094;2023-06-19T07:25:10;24.90;27.30
18287;DHT22;9269;50.838;12.094;2023-06-19T07:27:40;24.90;27.60
18287;DHT22;9269;50.838;12.094;2023-06-19T07:30:09;24.90;26.90
18287;DHT22;9269;50.838;12.094;2023-06-19T07:32:43;25.00;27.10
18287;DHT22;9269;50.838;12.094;2023-06-19T07:35:12;25.00;27.30
18287;DHT22;9269;50.838;12.094;2023-06-19T07:37:40;25.10;27.00
18287;DHT22;9269;50.838;12.094;2023-06-19T07:40:09;25.10;26.80
18287;DHT22;9269;50.838;12.094;2023-06-19T07:42:38;25.10;26.90
18287;DHT22;9269;50.838;12.094;2023-06-19T07:45:11;25.20;26.80
18287;DHT22;9269;50.838;12.094;2023-06-19T07:47:40;25.20;27.10
18287;DHT22;9269;50.838;12.094;2023-06-19T07:50:10;25.20;26.90
18287;DHT22;9269;50.838;12.094;2023-06-19T07:52:39;25.40;26.80
18287;DHT22;9269;50.838;12.094;2023-06-19T07:55:08;25.40;26.30
18287;DHT22;9269;50.838;12.094;2023-06-19T07:57:36;25.60;26.80
18287;DHT22;9269;50.838;12.094;2023-06-19T08:00:05;25.60;26.50
18287;DHT22;9269;50.838;12.094;2023-06-19T08:02:38;25.60;26.30
18287;DHT22;9269;50.838;12.094;2023-06-19T08:05:09;25.90;26.10
18287;DHT22;9269;50.838;12.094;2023-06-19T08:07:38;25.90;26.50
18287;DHT22;9269;50.838;12.094;2023-06-19T08:10:07;26.00;26.10
18287;DHT22;9269;50.838;12.094;2023-06-19T08:12:41;26.20;26.00
18287;DHT22;9269;50.838;12.094;2023-06-19T08:15:10;26.30;26.20
18287;DHT22;9269;50.838;12.094;2023-06-19T08:17:38;26.40;25.20
18287;DHT22;9269;50.838;12.094;2023-06-19T08:20:09;26.50;25.20
18287;DHT22;9269;50.838;12.094;2023-06-19T08:22:38;26.60;25.10
18287;DHT22;9269;50.838;12.094;2023-06-19T08:25:07;26.70;25.00
18287;DHT22;9269;50.838;12.094;2023-06-19T08:27:36;26.90;24.90
18287;DHT22;9269;50.838;12.094;2023-06-19T08:30:05;27.20;23.80
18287;DHT22;9269;50.838;12.094;2023-06-19T08:32:34;27.50;24.70
18287;DHT22;9269;50.838;12.094;2023-06-19T08:35:03;27.80;24.10
18287;DHT22;9269;50.838;12.094;2023-06-19T08:37:34;28.20;23.80
18287;DHT22;9269;50.838;12.094;2023-06-19T08:40:03;28.40;23.60
18287;DHT22;9269;50.838;12.094;2023-06-19T08:42:36;28.50;23.40
18287;DHT22;9269;50.838;12.094;2023-06-19T08:45:06;28.40;23.60
18287;DHT22;9269;50.838;12.094;2023-06-19T08:47:35;28.60;23.30
18287;DHT22;9269;50.838;12.094;2023-06-19T08:50:04;28.60;22.90
18287;DHT22;9269;50.838;12.094;2023-06-19T08:52:34;28.90;22.90
18287;DHT22;9269;50.838;12.094;2023-06-19T08:55:16;29.00;22.50
18287;DHT22;9269;50.838;12.094;2023-06-19T08:57:45;29.10;21.90
18287;DHT22;9269;50.838;12.094;2023-06-19T09:00:23;29.30;22.30
18287;DHT22;9269;50.838;12.094;2023-06-19T09:02:59;29.60;21.60
18287;DHT22;9269;50.838;12.094;2023-06-19T09:05:41;29.80;20.80
18287;DHT22;9269;50.838;12.094;2023-06-19T09:08:21;29.90;21.00
18287;DHT22;9269;50.838;12.094;2023-06-19T09:10:57;30.00;20.90
18287;DHT22;9269;50.838;12.094;2023-06-19T09:13:26;30.10;20.90
18287;DHT22;9269;50.838;12.094;2023-06-19T09:15:59;30.20;20.80
18287;DHT22;9269;50.838;12.094;2023-06-19T09:18:29;30.20;20.90
18287;DHT22;9269;50.838;12.094;2023-06-19T09:20:58;30.40;20.20
18287;DHT22;9269;50.838;12.094;2023-06-19T09:23:30;30.30;19.30
18287;DHT22;9269;50.838;12.094;2023-06-19T09:25:59;30.50;19.20
18287;DHT22;9269;50.838;12.094;2023-06-19T09:28:27;30.60;18.60
18287;DHT22;9269;50.838;12.094;2023-06-19T09:30:58;30.60;19.00
18287;DHT22;9269;50.838;12.094;2023-06-19T09:33:28;30.70;18.50
18287;DHT22;9269;50.838;12.094;2023-06-19T09:35:58;30.80;17.60
18287;DHT22;9269;50.838;12.094;2023-06-19T09:38:29;30.90;17.50
18287;DHT22;9269;50.838;12.094;2023-06-19T09:41:01;31.10;16.90
18287;DHT22;9269;50.838;12.094;2023-06-19T09:43:33;31.20;17.50
18287;DHT22;9269;50.838;12.094;2023-06-19T09:46:02;31.20;17.40
18287;DHT22;9269;50.838;12.094;2023-06-19T09:48:32;31.50;17.20
18287;DHT22;9269;50.838;12.094;2023-06-19T09:51:07;31.70;17.50
18287;DHT22;9269;50.838;12.094;2023-06-19T09:53:39;31.90;16.80
18287;DHT22;9269;50.838;12.094;2023-06-19T09:56:09;32.10;15.90
18287;DHT22;9269;50.838;12.094;2023-06-19T09:58:38;32.20;16.20
18287;DHT22;9269;50.838;12.094;2023-06-19T10:01:08;32.50;15.70
18287;DHT22;9269;50.838;12.094;2023-06-19T10:03:36;32.70;15.50
18287;DHT22;9269;50.838;12.094;2023-06-19T10:06:14;32.70;15.30
18287;DHT22;9269;50.838;12.094;2023-06-19T10:08:45;32.90;15.20
18287;DHT22;9269;50.838;12.094;2023-06-19T10:11:14;32.90;15.10
18287;DHT22;9269;50.838;12.094;2023-06-19T10:13:43;33.00;15.10
18287;DHT22;9269;50.838;12.094;2023-06-19T10:16:21;33.20;14.10
18287;DHT22;9269;50.838;12.094;2023-06-19T10:18:50;33.20;13.00
18287;DHT22;9269;50.838;12.094;2023-06-19T10:21:19;33.30;14.10
18287;DHT22;9269;50.838;12.094;2023-06-19T10:23:56;33.40;14.20
18287;DHT22;9269;50.838;12.094;2023-06-19T10:26:32;33.60;13.50
18287;DHT22;9269;50.838;12.094;2023-06-19T10:29:01;33.70;12.40
18287;DHT22;9269;50.838;12.094;2023-06-19T10:31:31;33.80;12.50
18287;DHT22;9269;50.838;12.094;2023-06-19T10:33:59;33.90;12.70
18287;DHT22;9269;50.838;12.094;2023-06-19T10:36:28;34.00;12.30
18287;DHT22;9269;50.838;12.094;2023-06-19T10:38:58;34.10;12.40
18287;DHT22;9269;50.838;12.094;2023-06-19T10:41:27;34.00;12.40
18287;DHT22;9269;50.838;12.094;2023-06-19T10:43:57;34.20;12.40
18287;DHT22;9269;50.838;12.094;2023-06-19T10:46:29;34.30;12.70
18287;DHT22;9269;50.838;12.094;2023-06-19T10:48:59;34.50;12.10
18287;DHT22;9269;50.838;12.094;2023-06-19T10:51:29;34.70;11.70
18287;DHT22;9269;50.838;12.094;2023-06-19T10:53:58;34.80;12.00
18287;DHT22;9269;50.838;12.094;2023-06-19T10:56:27;35.00;12.00
18287;DHT22;9269;50.838;12.094;2023-06-19T10:58:58;34.90;11.50
18287;DHT22;9269;50.838;12.094;2023-06-19T11:01:34;34.90;11.50
18287;DHT22;9269;50.838;12.094;2023-06-19T11:04:04;34.90;11.10
18287;DHT22;9269;50.838;12.094;2023-06-19T11:06:33;34.80;11.00
18287;DHT22;9269;50.838;12.094;2023-06-19T11:09:07;34.70;11.20
18287;DHT22;9269;50.838;12.094;2023-06-19T11:11:38;34.60;10.70
18287;DHT22;9269;50.838;12.094;2023-06-19T11:14:07;34.50;10.80
18287;DHT22;9269;50.838;12.094;2023-06-19T11:16:39;34.50;11.30
18287;DHT22;9269;50.838;12.094;2023-06-19T11:19:09;34.40;10.90
18287;DHT22;9269;50.838;12.094;2023-06-19T11:21:37;34.60;10.80
18287;DHT22;9269;50.838;12.094;2023-06-19T11:24:12;34.60;11.10
18287;DHT22;9269;50.838;12.094;2023-06-19T11:26:44;34.70;11.10
18287;DHT22;9269;50.838;12.094;2023-06-19T11:29:29;34.90;10.90
18287;DHT22;9269;50.838;12.094;2023-06-19T11:32:05;35.00;11.20
18287;DHT22;9269;50.838;12.094;2023-06-19T11:34:35;35.00;10.70
18287;DHT22;9269;50.838;12.094;2023-06-19T11:37:12;34.90;10.90
18287;DHT22;9269;50.838;12.094;2023-06-19T11:39:43;34.80;11.00
18287;DHT22;9269;50.838;12.094;2023-06-19T11:42:12;34.80;10.90
18287;DHT22;9269;50.838;12.094;2023-06-19T11:44:53;34.90;10.20
18287;DHT22;9269;50.838;12.094;2023-06-19T11:47:22;34.90;10.30
18287;DHT22;9269;50.838;12.094;2023-06-19T11:49:51;35.20;10.20
18287;DHT22;9269;50.838;12.094;2023-06-19T11:52:20;35.40;9.90
18287;DHT22;9269;50.838;12.094;2023-06-19T11:54:51;35.70;10.20
18287;DHT22;9269;50.838;12.094;2023-06-19T11:57:20;35.80;10.00
18287;DHT22;9269;50.838;12.094;2023-06-19T11:59:48;36.00;10.10
18287;DHT22;9269;50.838;12.094;2023-06-19T12:02:16;36.20;10.20
18287;DHT22;9269;50.838;12.094;2023-06-19T12:04:45;36.50;10.00
18287;DHT22;9269;50.838;12.094;2023-06-19T12:07:14;36.40;9.10
18287;DHT22;9269;50.838;12.094;2023-06-19T12:09:42;36.50;9.10
18287;DHT22;9269;50.838;12.094;2023-06-19T12:12:12;36.80;9.60
18287;DHT22;9269;50.838;12.094;2023-06-19T12:14:40;36.90;9.20
18287;DHT22;9269;50.838;12.094;2023-06-19T12:17:10;36.80;9.30
18287;DHT22;9269;50.838;12.094;2023-06-19T12:19:38;37.00;9.50
18287;DHT22;9269;50.838;12.094;2023-06-19T12:22:07;37.10;9.30
18287;DHT22;9269;50.838;12.094;2023-06-19T12:24:35;37.10;9.30
18287;DHT22;9269;50.838;12.094;2023-06-19T12:27:04;36.90;9.40
18287;DHT22;9269;50.838;12.094;2023-06-19T12:29:34;36.80;8.90
18287;DHT22;9269;50.838;12.094;2023-06-19T12:32:03;36.80;9.30
18287;DHT22;9269;50.838;12.094;2023-06-19T12:34:32;36.80;8.60
18287;DHT22;9269;50.838;12.094;2023-06-19T12:37:01;36.90;9.30
18287;DHT22;9269;50.838;12.094;2023-06-19T12:39:29;36.90;9.40
18287;DHT22;9269;50.838;12.094;2023-06-19T12:41:59;37.00;9.20
18287;DHT22;9269;50.838;12.094;2023-06-19T12:44:27;37.10;9.20
18287;DHT22;9269;50.838;12.094;2023-06-19T12:46:57;37.10;8.80
18287;DHT22;9269;50.838;12.094;2023-06-19T12:49:27;37.00;9.30
18287;DHT22;9269;50.838;12.094;2023-06-19T12:51:55;36.90;9.50
18287;DHT22;9269;50.838;12.094;2023-06-19T12:54:24;36.90;9.20
18287;DHT22;9269;50.838;12.094;2023-06-19T12:56:52;36.90;9.70
18287;DHT22;9269;50.838;12.094;2023-06-19T12:59:21;36.70;9.80
18287;DHT22;9269;50.838;12.094;2023-06-19T13:01:49;36.70;9.70
18287;DHT22;9269;50.838;12.094;2023-06-19T13:04:18;36.80;9.80
18287;DHT22;9269;50.838;12.094;2023-06-19T13:06:47;36.80;9.90
18287;DHT22;9269;50.838;12.094;2023-06-19T13:09:28;37.00;9.60
18287;DHT22;9269;50.838;12.094;2023-06-19T13:11:58;36.90;9.80
18287;DHT22;9269;50.838;12.094;2023-06-19T13:14:28;37.10;10.00
18287;DHT22;9269;50.838;12.094;2023-06-19T13:16:59;37.00;9.60
18287;DHT22;9269;50.838;12.094;2023-06-19T13:19:29;37.00;9.20
18287;DHT22;9269;50.838;12.094;2023-06-19T13:21:57;37.00;9.40
18287;DHT22;9269;50.838;12.094;2023-06-19T13:24:25;37.00;9.40
18287;DHT22;9269;50.838;12.094;2023-06-19T13:26:54;37.00;9.20
18287;DHT22;9269;50.838;12.094;2023-06-19T13:29:23;37.00;9.30
18287;DHT22;9269;50.838;12.094;2023-06-19T13:31:52;37.10;9.30
18287;DHT22;9269;50.838;12.094;2023-06-19T13:34:20;37.00;9.40
18287;DHT22;9269;50.838;12.094;2023-06-19T13:36:50;37.00;9.60
18287;DHT22;9269;50.838;12.094;2023-06-19T13:39:18;36.90;9.30
18287;DHT22;9269;50.838;12.094;2023-06-19T13:41:47;36.90;9.20
18287;DHT22;9269;50.838;12.094;2023-06-19T13:44:15;36.90;9.70
18287;DHT22;9269;50.838;12.094;2023-06-19T13:46:44;37.00;9.40
18287;DHT22;9269;50.838;12.094;2023-06-19T13:49:13;37.10;9.50
18287;DHT22;9269;50.838;12.094;2023-06-19T13:51:42;37.20;9.40
18287;DHT22;9269;50.838;12.094;2023-06-19T13:54:13;37.20;9.10
18287;DHT22;9269;50.838;12.094;2023-06-19T13:56:41;37.10;9.00
18287;DHT22;9269;50.838;12.094;2023-06-19T13:59:10;37.10;9.30
18287;DHT22;9269;50.838;12.094;2023-06-19T14:01:38;37.00;9.30
18287;DHT22;9269;50.838;12.094;2023-06-19T14:04:08;37.00;9.50
18287;DHT22;9269;50.838;12.094;2023-06-19T14:06:36;37.10;9.50
18287;DHT22;9269;50.838;12.094;2023-06-19T14:09:05;37.10;9.00
18287;DHT22;9269;50.838;12.094;2023-06-19T14:11:35;37.00;8.80
18287;DHT22;9269;50.838;12.094;2023-06-19T14:14:03;37.00;9.10
18287;DHT22;9269;50.838;12.094;2023-06-19T14:16:31;36.90;9.10
18287;DHT22;9269;50.838;12.094;2023-06-19T14:19:00;36.50;9.60
18287;DHT22;9269;50.838;12.094;2023-06-19T14:21:29;36.70;9.70
18287;DHT22;9269;50.838;12.094;2023-06-19T14:23:57;36.50;9.50
18287;DHT22;9269;50.838;12.094;2023-06-19T14:26:25;36.40;9.50
18287;DHT22;9269;50.838;12.094;2023-06-19T14:28:55;36.50;9.80
18287;DHT22;9269;50.838;12.094;2023-06-19T14:31:24;36.40;9.30
18287;DHT22;9269;50.838;12.094;2023-06-19T14:33:53;36.20;9.50
18287;DHT22;9269;50.838;12.094;2023-06-19T14:36:22;36.20;9.60
18287;DHT22;9269;50.838;12.094;2023-06-19T14:38:50;36.00;9.50
18287;DHT22;9269;50.838;12.094;2023-06-19T14:41:18;35.90;9.20
18287;DHT22;9269;50.838;12.094;2023-06-19T14:43:47;35.70;9.90
18287;DHT22;9269;50.838;12.094;2023-06-19T14:46:19;35.70;10.10
18287;DHT22;9269;50.838;12.094;2023-06-19T14:49:05;35.50;10.00
18287;DHT22;9269;50.838;12.094;2023-06-19T14:51:34;35.40;10.20
18287;DHT22;9269;50.838;12.094;2023-06-19T14:54:02;35.30;10.50
18287;DHT22;9269;50.838;12.094;2023-06-19T14:56:30;35.20;10.30
18287;DHT22;9269;50.838;12.094;2023-06-19T14:58:59;35.20;10.60
18287;DHT22;9269;50.838;12.094;2023-06-19T15:01:29;35.00;10.60
18287;DHT22;9269;50.838;12.094;2023-06-19T15:03:57;34.90;11.10
18287;DHT22;9269;50.838;12.094;2023-06-19T15:06:26;34.70;11.80
18287;DHT22;9269;50.838;12.094;2023-06-19T15:08:54;34.30;13.50
18287;DHT22;9269;50.838;12.094;2023-06-19T15:11:24;33.90;13.70
18287;DHT22;9269;50.838;12.094;2023-06-19T15:13:53;33.70;14.90
18287;DHT22;9269;50.838;12.094;2023-06-19T15:16:21;33.60;16.70
18287;DHT22;9269;50.838;12.094;2023-06-19T15:18:51;33.70;16.20
18287;DHT22;9269;50.838;12.094;2023-06-19T15:21:19;33.60;17.10
18287;DHT22;9269;50.838;12.094;2023-06-19T15:23:48;33.70;17.50
18287;DHT22;9269;50.838;12.094;2023-06-19T15:26:16;33.70;18.40
18287;DHT22;9269;50.838;12.094;2023-06-19T15:28:45;33.90;19.30
18287;DHT22;9269;50.838;12.094;2023-06-19T15:31:14;34.00;18.60
18287;DHT22;9269;50.838;12.094;2023-06-19T15:33:43;34.10;18.80
18287;DHT22;9269;50.838;12.094;2023-06-19T15:36:13;34.10;19.30
18287;DHT22;9269;50.838;12.094;2023-06-19T15:38:42;34.00;19.40
18287;DHT22;9269;50.838;12.094;2023-06-19T15:41:10;34.00;18.80
18287;DHT22;9269;50.838;12.094;2023-06-19T15:43:39;33.90;18.70
18287;DHT22;9269;50.838;12.094;2023-06-19T15:46:07;33.90;18.40
18287;DHT22;9269;50.838;12.094;2023-06-19T15:48:36;33.80;18.20